sensor_id;sensor_type;location;lat;lon;timestamp;temperature;humidity
70986;DHT22;58645;43.068;25.610;2023-08-06T00:02:23;24.70;80.90
70986;DHT22;58645;43.068;25.610;2023-08-06T00:04:49;24.60;81.00
70986;DHT22;58645;43.068;25.610;2023-08-06T00:07:15;24.60;81.40
70986;DHT22;58645;43.068;25.610;2023-08-06T00:09:40;24.60;81.80
70986;DHT22;58645;43.068;25.610;2023-08-06T00:12:06;24.60;82.10
70986;DHT22;58645;43.068;25.610;2023-08-06T00:14:32;24.60;82.10
70986;DHT22;58645;43.068;25.610;2023-08-06T00:16:58;24.70;82.70
70986;DHT22;58645;43.068;25.610;2023-08-06T00:19:23;24.60;82.70
70986;DHT22;58645;43.068;25.610;2023-08-06T00:21:49;24.60;83.10
70986;DHT22;58645;43.068;25.610;2023-08-06T00:24:14;24.60;83.50
70986;DHT22;58645;43.068;25.610;2023-08-06T00:26:40;24.60;83.70
70986;DHT22;58645;43.068;25.610;2023-08-06T00:29:06;24.50;83.60
70986;DHT22;58645;43.068;25.610;2023-08-06T00:31:31;24.50;80.80
70986;DHT22;58645;43.068;25.610;2023-08-06T00:33:57;24.30;78.90
70986;DHT22;58645;43.068;25.610;2023-08-06T00:36:23;24.20;79.20
70986;DHT22;58645;43.068;25.610;2023-08-06T00:38:48;24.00;79.20
70986;DHT22;58645;43.068;25.610;2023-08-06T00:41:14;23.80;79.70
70986;DHT22;58645;43.068;25.610;2023-08-06T00:43:40;23.60;79.90
70986;DHT22;58645;43.068;25.610;2023-08-06T00:46:06;23.60;80.40
70986;DHT22;58645;43.068;25.610;2023-08-06T00:48:32;23.40;80.80
70986;DHT22;58645;43.068;25.610;2023-08-06T00:50:58;23.30;81.00
70986;DHT22;58645;43.068;25.610;2023-08-06T00:53:24;23.20;81.10
70986;DHT22;58645;43.068;25.610;2023-08-06T00:55:50;23.10;81.20
70986;DHT22;58645;43.068;25.610;2023-08-06T00:58:16;23.00;81.30
70986;DHT22;58645;43.068;25.610;2023-08-06T01:00:41;23.00;81.60
70986;DHT22;58645;43.068;25.610;2023-08-06T01:03:08;22.90;82.00
70986;DHT22;58645;43.068;25.610;2023-08-06T01:05:33;22.90;82.10
70986;DHT22;58645;43.068;25.610;2023-08-06T01:08:40;22.80;82.10
70986;DHT22;58645;43.068;25.610;2023-08-06T01:11:17;22.70;82.20
70986;DHT22;58645;43.068;25.610;2023-08-06T01:13:48;22.60;82.30
70986;DHT22;58645;43.068;25.610;2023-08-06T01:16:18;22.60;82.60
70986;DHT22;58645;43.068;25.610;2023-08-06T01:18:44;22.60;82.50
70986;DHT22;58645;43.068;25.610;2023-08-06T01:21:18;22.60;82.60
70986;DHT22;58645;43.068;25.610;2023-08-06T01:23:45;22.50;82.40
70986;DHT22;58645;43.068;25.610;2023-08-06T01:31:36;22.40;82.30
70986;DHT22;58645;43.068;25.610;2023-08-06T01:34:05;22.40;82.30
70986;DHT22;58645;43.068;25.610;2023-08-06T01:36:31;22.30;82.30
70986;DHT22;58645;43.068;25.610;2023-08-06T01:38:57;22.30;82.40
70986;DHT22;58645;43.068;25.610;2023-08-06T01:41:23;22.30;82.40
70986;DHT22;58645;43.068;25.610;2023-08-06T01:43:49;22.30;82.30
70986;DHT22;58645;43.068;25.610;2023-08-06T01:46:15;22.20;82.10
70986;DHT22;58645;43.068;25.610;2023-08-06T01:48:40;22.20;82.10
70986;DHT22;58645;43.068;25.610;2023-08-06T01:51:06;22.20;82.20
70986;DHT22;58645;43.068;25.610;2023-08-06T01:53:33;22.20;82.00
70986;DHT22;58645;43.068;25.610;2023-08-06T01:55:58;22.20;82.00
70986;DHT22;58645;43.068;25.610;2023-08-06T01:58:24;22.20;82.10
70986;DHT22;58645;43.068;25.610;2023-08-06T02:00:50;22.20;82.00
70986;DHT22;58645;43.068;25.610;2023-08-06T02:03:16;22.20;82.00
70986;DHT22;58645;43.068;25.610;2023-08-06T02:05:42;22.20;81.90
70986;DHT22;58645;43.068;25.610;2023-08-06T02:08:07;22.20;82.00
70986;DHT22;58645;43.068;25.610;2023-08-06T02:10:33;22.20;82.20
70986;DHT22;58645;43.068;25.610;2023-08-06T02:12:59;22.10;82.40
70986;DHT22;58645;43.068;25.610;2023-08-06T02:15:25;22.20;82.90
70986;DHT22;58645;43.068;25.610;2023-08-06T02:17:51;22.10;82.70
70986;DHT22;58645;43.068;25.610;2023-08-06T02:20:16;22.20;82.60
70986;DHT22;58645;43.068;25.610;2023-08-06T02:22:42;22.10;82.40
70986;DHT22;58645;43.068;25.610;2023-08-06T02:25:08;22.10;82.30
70986;DHT22;58645;43.068;25.610;2023-08-06T02:27:34;22.10;82.50
70986;DHT22;58645;43.068;25.610;2023-08-06T02:29:59;22.00;82.30
70986;DHT22;58645;43.068;25.610;2023-08-06T02:32:25;22.00;82.60
70986;DHT22;58645;43.068;25.610;2023-08-06T02:34:51;22.00;82.90
70986;DHT22;58645;43.068;25.610;2023-08-06T02:37:16;22.10;83.10
70986;DHT22;58645;43.068;25.610;2023-08-06T02:39:42;22.10;83.40
70986;DHT22;58645;43.068;25.610;2023-08-06T02:42:08;22.10;83.10
70986;DHT22;58645;43.068;25.610;2023-08-06T02:44:35;22.10;82.70
70986;DHT22;58645;43.068;25.610;2023-08-06T02:47:01;22.10;82.50
70986;DHT22;58645;43.068;25.610;2023-08-06T02:49:27;22.00;82.50
70986;DHT22;58645;43.068;25.610;2023-08-06T02:51:52;22.00;82.60
70986;DHT22;58645;43.068;25.610;2023-08-06T02:54:19;22.00;82.70
70986;DHT22;58645;43.068;25.610;2023-08-06T02:56:45;22.00;82.30
70986;DHT22;58645;43.068;25.610;2023-08-06T02:59:12;21.90;82.70
70986;DHT22;58645;43.068;25.610;2023-08-06T03:01:38;21.90;83.10
70986;DHT22;58645;43.068;25.610;2023-08-06T03:04:04;21.90;83.10
70986;DHT22;58645;43.068;25.610;2023-08-06T03:06:30;21.90;83.10
70986;DHT22;58645;43.068;25.610;2023-08-06T03:08:55;21.90;82.70
70986;DHT22;58645;43.068;25.610;2023-08-06T03:11:21;21.90;83.00
70986;DHT22;58645;43.068;25.610;2023-08-06T03:13:47;21.90;82.60
70986;DHT22;58645;43.068;25.610;2023-08-06T03:16:14;21.90;82.80
70986;DHT22;58645;43.068;25.610;2023-08-06T03:18:39;21.90;82.60
70986;DHT22;58645;43.068;25.610;2023-08-06T03:21:05;21.90;82.70
70986;DHT22;58645;43.068;25.610;2023-08-06T03:23:31;21.90;83.10
70986;DHT22;58645;43.068;25.610;2023-08-06T03:26:00;21.90;83.20
70986;DHT22;58645;43.068;25.610;2023-08-06T03:28:26;21.90;83.00
70986;DHT22;58645;43.068;25.610;2023-08-06T03:31:02;21.90;82.60
70986;DHT22;58645;43.068;25.610;2023-08-06T03:33:28;21.90;82.40
70986;DHT22;58645;43.068;25.610;2023-08-06T03:35:53;21.90;82.40
70986;DHT22;58645;43.068;25.610;2023-08-06T03:38:19;21.90;82.50
70986;DHT22;58645;43.068;25.610;2023-08-06T03:40:46;21.90;82.90
70986;DHT22;58645;43.068;25.610;2023-08-06T03:43:12;22.00;82.30
70986;DHT22;58645;43.068;25.610;2023-08-06T03:45:38;22.00;82.00
70986;DHT22;58645;43.068;25.610;2023-08-06T03:48:04;22.10;82.60
70986;DHT22;58645;43.068;25.610;2023-08-06T03:50:29;22.10;82.60
70986;DHT22;58645;43.068;25.610;2023-08-06T03:52:55;22.20;82.00
70986;DHT22;58645;43.068;25.610;2023-08-06T03:55:21;22.20;82.00
70986;DHT22;58645;43.068;25.610;2023-08-06T03:57:47;22.30;80.90
70986;DHT22;58645;43.068;25.610;2023-08-06T04:00:13;22.30;81.00
70986;DHT22;58645;43.068;25.610;2023-08-06T04:02:39;22.30;80.40
70986;DHT22;58645;43.068;25.610;2023-08-06T04:05:05;22.40;80.20
70986;DHT22;58645;43.068;25.610;2023-08-06T04:07:30;22.50;80.00
70986;DHT22;58645;43.068;25.610;2023-08-06T04:10:01;22.50;80.20
70986;DHT22;58645;43.068;25.610;2023-08-06T04:12:27;22.60;79.60
70986;DHT22;58645;43.068;25.610;2023-08-06T04:14:53;22.70;78.80
70986;DHT22;58645;43.068;25.610;2023-08-06T04:17:20;22.70;78.80
70986;DHT22;58645;43.068;25.610;2023-08-06T04:19:51;22.70;78.50
70986;DHT22;58645;43.068;25.610;2023-08-06T04:22:17;22.80;78.50
70986;DHT22;58645;43.068;25.610;2023-08-06T04:24:43;22.90;78.30
70986;DHT22;58645;43.068;25.610;2023-08-06T04:27:09;22.90;78.30
70986;DHT22;58645;43.068;25.610;2023-08-06T04:29:36;23.00;77.40
70986;DHT22;58645;43.068;25.610;2023-08-06T04:32:01;23.00;77.40
70986;DHT22;58645;43.068;25.610;2023-08-06T04:34:27;23.20;77.50
70986;DHT22;58645;43.068;25.610;2023-08-06T04:36:53;23.30;77.10
70986;DHT22;58645;43.068;25.610;2023-08-06T04:39:18;23.50;76.70
70986;DHT22;58645;43.068;25.610;2023-08-06T04:41:44;23.70;77.00
70986;DHT22;58645;43.068;25.610;2023-08-06T04:44:10;23.90;75.90
70986;DHT22;58645;43.068;25.610;2023-08-06T04:46:35;24.10;74.70
70986;DHT22;58645;43.068;25.610;2023-08-06T04:49:01;24.20;73.90
70986;DHT22;58645;43.068;25.610;2023-08-06T04:51:26;24.30;73.80
70986;DHT22;58645;43.068;25.610;2023-08-06T04:53:52;24.30;73.90
70986;DHT22;58645;43.068;25.610;2023-08-06T04:56:18;24.20;73.80
70986;DHT22;58645;43.068;25.610;2023-08-06T04:58:43;24.20;73.90
70986;DHT22;58645;43.068;25.610;2023-08-06T05:01:09;24.10;73.30
70986;DHT22;58645;43.068;25.610;2023-08-06T05:03:35;24.10;73.90
70986;DHT22;58645;43.068;25.610;2023-08-06T05:06:00;24.20;73.40
70986;DHT22;58645;43.068;25.610;2023-08-06T05:08:26;24.10;73.50
70986;DHT22;58645;43.068;25.610;2023-08-06T05:10:52;24.10;73.80
70986;DHT22;58645;43.068;25.610;2023-08-06T05:13:17;24.50;73.30
70986;DHT22;58645;43.068;25.610;2023-08-06T05:15:43;24.80;72.20
70986;DHT22;58645;43.068;25.610;2023-08-06T05:18:11;25.10;71.60
70986;DHT22;58645;43.068;25.610;2023-08-06T05:20:41;25.40;70.10
70986;DHT22;58645;43.068;25.610;2023-08-06T05:23:07;25.70;68.80
70986;DHT22;58645;43.068;25.610;2023-08-06T05:25:36;25.80;67.40
70986;DHT22;58645;43.068;25.610;2023-08-06T05:28:02;26.00;67.10
70986;DHT22;58645;43.068;25.610;2023-08-06T05:30:28;26.20;66.00
70986;DHT22;58645;43.068;25.610;2023-08-06T05:32:54;26.30;65.50
70986;DHT22;58645;43.068;25.610;2023-08-06T05:35:21;26.40;65.30
70986;DHT22;58645;43.068;25.610;2023-08-06T05:37:48;26.40;64.90
70986;DHT22;58645;43.068;25.610;2023-08-06T05:40:14;26.60;64.10
70986;DHT22;58645;43.068;25.610;2023-08-06T05:42:40;26.50;63.70
70986;DHT22;58645;43.068;25.610;2023-08-06T05:45:07;26.60;64.20
70986;DHT22;58645;43.068;25.610;2023-08-06T05:47:33;26.70;64.10
70986;DHT22;58645;43.068;25.610;2023-08-06T05:49:58;27.20;63.50
70986;DHT22;58645;43.068;25.610;2023-08-06T05:52:24;27.70;61.40
70986;DHT22;58645;43.068;25.610;2023-08-06T05:54:50;28.30;60.70
70986;DHT22;58645;43.068;25.610;2023-08-06T05:57:16;28.40;59.10
70986;DHT22;58645;43.068;25.610;2023-08-06T05:59:42;28.20;60.20
70986;DHT22;58645;43.068;25.610;2023-08-06T06:02:08;27.80;59.90
70986;DHT22;58645;43.068;25.610;2023-08-06T06:04:34;27.70;60.90
70986;DHT22;58645;43.068;25.610;2023-08-06T06:06:59;27.70;60.60
70986;DHT22;58645;43.068;25.610;2023-08-06T06:09:25;27.90;60.70
70986;DHT22;58645;43.068;25.610;2023-08-06T06:11:51;27.80;59.90
70986;DHT22;58645;43.068;25.610;2023-08-06T06:14:17;27.80;60.50
70986;DHT22;58645;43.068;25.610;2023-08-06T06:16:43;27.70;60.90
70986;DHT22;58645;43.068;25.610;2023-08-06T06:19:09;27.90;60.00
70986;DHT22;58645;43.068;25.610;2023-08-06T06:21:35;27.80;59.90
70986;DHT22;58645;43.068;25.610;2023-08-06T06:24:01;27.90;59.90
70986;DHT22;58645;43.068;25.610;2023-08-06T06:26:26;28.30;59.20
70986;DHT22;58645;43.068;25.610;2023-08-06T06:28:52;28.50;59.00
70986;DHT22;58645;43.068;25.610;2023-08-06T06:31:18;28.60;58.40
70986;DHT22;58645;43.068;25.610;2023-08-06T06:33:44;28.30;59.60
70986;DHT22;58645;43.068;25.610;2023-08-06T06:36:09;27.90;59.30
70986;DHT22;58645;43.068;25.610;2023-08-06T06:38:35;27.80;59.40
70986;DHT22;58645;43.068;25.610;2023-08-06T06:41:01;27.80;60.20
70986;DHT22;58645;43.068;25.610;2023-08-06T06:43:28;27.80;59.70
70986;DHT22;58645;43.068;25.610;2023-08-06T06:46:01;27.60;59.70
70986;DHT22;58645;43.068;25.610;2023-08-06T06:48:28;27.80;59.30
70986;DHT22;58645;43.068;25.610;2023-08-06T06:50:55;27.80;59.70
70986;DHT22;58645;43.068;25.610;2023-08-06T06:53:21;27.60;59.60
70986;DHT22;58645;43.068;25.610;2023-08-06T06:56:02;27.70;60.60
70986;DHT22;58645;43.068;25.610;2023-08-06T06:58:28;27.60;60.90
70986;DHT22;58645;43.068;25.610;2023-08-06T07:00:54;27.30;60.70
70986;DHT22;58645;43.068;25.610;2023-08-06T07:03:20;27.30;60.90
70986;DHT22;58645;43.068;25.610;2023-08-06T07:05:46;27.10;61.80
70986;DHT22;58645;43.068;25.610;2023-08-06T07:08:12;27.10;61.20
70986;DHT22;58645;43.068;25.610;2023-08-06T07:10:38;27.70;60.80
70986;DHT22;58645;43.068;25.610;2023-08-06T07:13:04;28.40;59.50
70986;DHT22;58645;43.068;25.610;2023-08-06T07:15:29;28.80;58.80
70986;DHT22;58645;43.068;25.610;2023-08-06T07:17:55;28.90;57.50
70986;DHT22;58645;43.068;25.610;2023-08-06T07:20:21;28.80;58.30
70986;DHT22;58645;43.068;25.610;2023-08-06T07:22:46;28.70;59.00
70986;DHT22;58645;43.068;25.610;2023-08-06T07:25:12;28.60;59.50
70986;DHT22;58645;43.068;25.610;2023-08-06T07:27:38;28.20;60.40
70986;DHT22;58645;43.068;25.610;2023-08-06T07:30:06;27.80;61.20
70986;DHT22;58645;43.068;25.610;2023-08-06T07:32:31;27.70;62.20
70986;DHT22;58645;43.068;25.610;2023-08-06T07:34:57;27.60;63.20
70986;DHT22;58645;43.068;25.610;2023-08-06T07:37:29;27.50;63.60
70986;DHT22;58645;43.068;25.610;2023-08-06T07:39:56;27.30;63.60
70986;DHT22;58645;43.068;25.610;2023-08-06T07:42:22;27.20;65.10
70986;DHT22;58645;43.068;25.610;2023-08-06T07:44:55;27.00;65.60
70986;DHT22;58645;43.068;25.610;2023-08-06T07:47:21;26.70;65.60
70986;DHT22;58645;43.068;25.610;2023-08-06T07:49:47;26.50;66.10
70986;DHT22;58645;43.068;25.610;2023-08-06T07:52:13;26.30;66.50
70986;DHT22;58645;43.068;25.610;2023-08-06T07:54:38;26.30;67.20
70986;DHT22;58645;43.068;25.610;2023-08-06T07:57:04;26.20;68.30
70986;DHT22;58645;43.068;25.610;2023-08-06T07:59:30;26.00;68.60
70986;DHT22;58645;43.068;25.610;2023-08-06T08:01:56;26.00;69.10
70986;DHT22;58645;43.068;25.610;2023-08-06T08:04:22;25.90;68.90
70986;DHT22;58645;43.068;25.610;2023-08-06T08:06:47;25.90;69.40
70986;DHT22;58645;43.068;25.610;2023-08-06T08:09:14;25.80;69.90
70986;DHT22;58645;43.068;25.610;2023-08-06T08:11:40;25.80;70.70
70986;DHT22;58645;43.068;25.610;2023-08-06T08:14:06;25.70;70.70
70986;DHT22;58645;43.068;25.610;2023-08-06T08:16:32;25.60;72.00
70986;DHT22;58645;43.068;25.610;2023-08-06T08:18:58;25.40;72.70
70986;DHT22;58645;43.068;25.610;2023-08-06T08:21:23;25.10;73.10
70986;DHT22;58645;43.068;25.610;2023-08-06T08:23:50;25.10;73.90
70986;DHT22;58645;43.068;25.610;2023-08-06T08:26:15;25.00;74.20
70986;DHT22;58645;43.068;25.610;2023-08-06T08:28:41;25.00;75.80
70986;DHT22;58645;43.068;25.610;2023-08-06T08:31:08;25.00;76.80
70986;DHT22;58645;43.068;25.610;2023-08-06T08:33:35;24.90;81.10
70986;DHT22;58645;43.068;25.610;2023-08-06T08:36:00;24.80;82.90
70986;DHT22;58645;43.068;25.610;2023-08-06T08:38:26;24.60;83.30
70986;DHT22;58645;43.068;25.610;2023-08-06T08:40:53;24.50;86.30
70986;DHT22;58645;43.068;25.610;2023-08-06T08:43:23;24.20;86.30
70986;DHT22;58645;43.068;25.610;2023-08-06T08:45:53;24.10;87.50
70986;DHT22;58645;43.068;25.610;2023-08-06T08:48:25;24.00;86.70
70986;DHT22;58645;43.068;25.610;2023-08-06T08:50:52;24.00;88.70
70986;DHT22;58645;43.068;25.610;2023-08-06T08:53:18;23.80;90.90
70986;DHT22;58645;43.068;25.610;2023-08-06T08:55:49;23.70;91.40
70986;DHT22;58645;43.068;25.610;2023-08-06T08:58:15;23.50;92.70
70986;DHT22;58645;43.068;25.610;2023-08-06T09:00:47;23.30;96.10
70986;DHT22;58645;43.068;25.610;2023-08-06T09:03:16;23.20;97.40
70986;DHT22;58645;43.068;25.610;2023-08-06T09:05:44;23.10;98.50
70986;DHT22;58645;43.068;25.610;2023-08-06T09:08:12;23.10;99.90
70986;DHT22;58645;43.068;25.610;2023-08-06T09:10:41;23.30;99.90
70986;DHT22;58645;43.068;25.610;2023-08-06T09:13:08;23.40;99.90
70986;DHT22;58645;43.068;25.610;2023-08-06T09:15:34;23.60;99.90
70986;DHT22;58645;43.068;25.610;2023-08-06T09:18:00;23.70;99.90
70986;DHT22;58645;43.068;25.610;2023-08-06T09:20:26;23.80;99.90
70986;DHT22;58645;43.068;25.610;2023-08-06T09:22:55;24.00;99.90
70986;DHT22;58645;43.068;25.610;2023-08-06T09:25:22;24.30;99.90
70986;DHT22;58645;43.068;25.610;2023-08-06T09:27:50;24.60;99.90
70986;DHT22;58645;43.068;25.610;2023-08-06T09:30:28;24.90;99.90
70986;DHT22;58645;43.068;25.610;2023-08-06T09:32:53;25.30;99.90
70986;DHT22;58645;43.068;25.610;2023-08-06T09:35:19;25.70;97.80
70986;DHT22;58645;43.068;25.610;2023-08-06T09:37:45;26.10;97.80
70986;DHT22;58645;43.068;25.610;2023-08-06T09:40:31;26.10;94.10
70986;DHT22;58645;43.068;25.610;2023-08-06T09:42:58;26.00;94.20
70986;DHT22;58645;43.068;25.610;2023-08-06T09:45:30;25.70;93.50
70986;DHT22;58645;43.068;25.610;2023-08-06T09:47:57;25.50;94.40
70986;DHT22;58645;43.068;25.610;2023-08-06T09:50:31;25.30;95.30
70986;DHT22;58645;43.068;25.610;2023-08-06T09:52:58;25.50;94.40
70986;DHT22;58645;43.068;25.610;2023-08-06T09:55:24;26.10;93.10
70986;DHT22;58645;43.068;25.610;2023-08-06T09:57:52;27.30;89.20
70986;DHT22;58645;43.068;25.610;2023-08-06T10:00:19;28.30;84.90
70986;DHT22;58645;43.068;25.610;2023-08-06T10:02:46;29.10;79.20
70986;DHT22;58645;43.068;25.610;2023-08-06T10:05:12;29.30;76.60
70986;DHT22;58645;43.068;25.610;2023-08-06T10:07:38;28.50;75.90
70986;DHT22;58645;43.068;25.610;2023-08-06T10:10:06;27.80;77.20
70986;DHT22;58645;43.068;25.610;2023-08-06T10:12:34;27.20;80.00
70986;DHT22;58645;43.068;25.610;2023-08-06T10:15:04;27.00;81.20
70986;DHT22;58645;43.068;25.610;2023-08-06T10:17:32;26.50;81.10
70986;DHT22;58645;43.068;25.610;2023-08-06T10:19:59;25.90;84.00
70986;DHT22;58645;43.068;25.610;2023-08-06T10:22:25;25.50;85.70
70986;DHT22;58645;43.068;25.610;2023-08-06T10:24:57;25.40;86.90
70986;DHT22;58645;43.068;25.610;2023-08-06T10:27:29;25.20;86.70
70986;DHT22;58645;43.068;25.610;2023-08-06T10:30:22;24.80;87.90
70986;DHT22;58645;43.068;25.610;2023-08-06T10:32:53;24.50;89.20
70986;DHT22;58645;43.068;25.610;2023-08-06T10:38:22;24.30;91.80
70986;DHT22;58645;43.068;25.610;2023-08-06T10:43:29;23.90;92.40
70986;DHT22;58645;43.068;25.610;2023-08-06T10:45:56;23.80;93.50
70986;DHT22;58645;43.068;25.610;2023-08-06T10:48:45;23.50;94.80
70986;DHT22;58645;43.068;25.610;2023-08-06T10:51:12;23.40;95.50
70986;DHT22;58645;43.068;25.610;2023-08-06T10:53:42;23.30;97.10
70986;DHT22;58645;43.068;25.610;2023-08-06T10:58:39;23.10;99.90
70986;DHT22;58645;43.068;25.610;2023-08-06T11:01:05;23.00;99.90
70986;DHT22;58645;43.068;25.610;2023-08-06T11:03:33;22.90;99.90
70986;DHT22;58645;43.068;25.610;2023-08-06T11:05:59;22.70;99.90
70986;DHT22;58645;43.068;25.610;2023-08-06T11:08:26;22.50;99.90
70986;DHT22;58645;43.068;25.610;2023-08-06T11:10:53;21.80;99.90
70986;DHT22;58645;43.068;25.610;2023-08-06T11:13:20;20.50;99.90
70986;DHT22;58645;43.068;25.610;2023-08-06T11:15:45;20.00;99.90
70986;DHT22;58645;43.068;25.610;2023-08-06T11:18:11;19.90;99.90
70986;DHT22;58645;43.068;25.610;2023-08-06T11:20:38;19.90;99.90
70986;DHT22;58645;43.068;25.610;2023-08-06T11:23:04;19.80;99.90
70986;DHT22;58645;43.068;25.610;2023-08-06T11:25:30;19.90;99.90
70986;DHT22;58645;43.068;25.610;2023-08-06T11:27:56;19.70;99.90
70986;DHT22;58645;43.068;25.610;2023-08-06T11:30:22;19.60;99.90
70986;DHT22;58645;43.068;25.610;2023-08-06T11:32:48;19.60;99.90
70986;DHT22;58645;43.068;25.610;2023-08-06T11:35:15;19.60;99.90
70986;DHT22;58645;43.068;25.610;2023-08-06T11:37:45;19.60;99.90
70986;DHT22;58645;43.068;25.610;2023-08-06T11:40:12;19.50;99.90
70986;DHT22;58645;43.068;25.610;2023-08-06T11:42:40;19.50;99.90
70986;DHT22;58645;43.068;25.610;2023-08-06T11:45:06;19.40;99.90
70986;DHT22;58645;43.068;25.610;2023-08-06T11:47:34;19.40;99.90
70986;DHT22;58645;43.068;25.610;2023-08-06T11:49:59;19.40;99.90
70986;DHT22;58645;43.068;25.610;2023-08-06T11:52:26;19.30;99.90
70986;DHT22;58645;43.068;25.610;2023-08-06T11:55:04;19.30;99.90
70986;DHT22;58645;43.068;25.610;2023-08-06T11:57:36;19.30;99.90
70986;DHT22;58645;43.068;25.610;2023-08-06T12:00:04;19.30;99.90
70986;DHT22;58645;43.068;25.610;2023-08-06T12:02:33;19.40;99.90
70986;DHT22;58645;43.068;25.610;2023-08-06T12:05:15;19.30;99.90
70986;DHT22;58645;43.068;25.610;2023-08-06T12:07:52;19.40;99.90
70986;DHT22;58645;43.068;25.610;2023-08-06T12:10:19;19.40;99.90
70986;DHT22;58645;43.068;25.610;2023-08-06T12:12:46;19.50;99.90
70986;DHT22;58645;43.068;25.610;2023-08-06T12:15:12;19.50;99.90
70986;DHT22;58645;43.068;25.610;2023-08-06T12:17:38;19.60;99.90
70986;DHT22;58645;43.068;25.610;2023-08-06T12:20:05;19.60;99.90
70986;DHT22;58645;43.068;25.610;2023-08-06T12:22:32;19.60;99.90
70986;DHT22;58645;43.068;25.610;2023-08-06T12:25:04;19.80;99.90
70986;DHT22;58645;43.068;25.610;2023-08-06T12:27:35;19.90;99.90
70986;DHT22;58645;43.068;25.610;2023-08-06T12:30:00;20.10;99.90
70986;DHT22;58645;43.068;25.610;2023-08-06T12:32:26;20.80;99.90
70986;DHT22;58645;43.068;25.610;2023-08-06T12:34:52;21.50;99.90
70986;DHT22;58645;43.068;25.610;2023-08-06T12:37:18;21.60;99.90
70986;DHT22;58645;43.068;25.610;2023-08-06T12:39:43;22.10;99.90
70986;DHT22;58645;43.068;25.610;2023-08-06T12:42:09;22.40;99.90
70986;DHT22;58645;43.068;25.610;2023-08-06T12:44:36;22.80;99.90
70986;DHT22;58645;43.068;25.610;2023-08-06T12:47:01;22.90;99.90
70986;DHT22;58645;43.068;25.610;2023-08-06T12:49:27;23.30;99.90
70986;DHT22;58645;43.068;25.610;2023-08-06T12:51:54;23.20;99.90
70986;DHT22;58645;43.068;25.610;2023-08-06T12:54:20;23.50;99.90
70986;DHT22;58645;43.068;25.610;2023-08-06T12:56:47;23.40;99.90
70986;DHT22;58645;43.068;25.610;2023-08-06T12:59:15;23.40;99.90
70986;DHT22;58645;43.068;25.610;2023-08-06T13:01:41;23.40;99.90
70986;DHT22;58645;43.068;25.610;2023-08-06T13:04:07;23.20;99.90
70986;DHT22;58645;43.068;25.610;2023-08-06T13:06:33;23.50;99.90
70986;DHT22;58645;43.068;25.610;2023-08-06T13:09:06;23.20;99.90
70986;DHT22;58645;43.068;25.610;2023-08-06T13:11:34;23.40;99.90
70986;DHT22;58645;43.068;25.610;2023-08-06T13:14:05;23.50;99.90
70986;DHT22;58645;43.068;25.610;2023-08-06T13:16:31;23.60;99.90
70986;DHT22;58645;43.068;25.610;2023-08-06T13:18:57;23.60;99.90
70986;DHT22;58645;43.068;25.610;2023-08-06T13:21:22;23.70;99.90
70986;DHT22;58645;43.068;25.610;2023-08-06T13:23:48;23.80;99.90
70986;DHT22;58645;43.068;25.610;2023-08-06T13:26:14;23.70;99.90
70986;DHT22;58645;43.068;25.610;2023-08-06T13:28:41;23.50;99.90
70986;DHT22;58645;43.068;25.610;2023-08-06T13:31:07;23.60;99.90
70986;DHT22;58645;43.068;25.610;2023-08-06T13:33:33;23.60;99.90
70986;DHT22;58645;43.068;25.610;2023-08-06T13:35:58;23.50;99.90
70986;DHT22;58645;43.068;25.610;2023-08-06T13:38:24;23.40;99.90
70986;DHT22;58645;43.068;25.610;2023-08-06T13:40:50;23.40;99.90
70986;DHT22;58645;43.068;25.610;2023-08-06T13:43:15;23.20;99.90
70986;DHT22;58645;43.068;25.610;2023-08-06T13:45:44;23.20;99.90
70986;DHT22;58645;43.068;25.610;2023-08-06T13:48:10;23.20;99.90
70986;DHT22;58645;43.068;25.610;2023-08-06T13:50:36;23.30;99.90
70986;DHT22;58645;43.068;25.610;2023-08-06T13:53:03;23.30;99.90
70986;DHT22;58645;43.068;25.610;2023-08-06T13:55:29;23.30;99.90
70986;DHT22;58645;43.068;25.610;2023-08-06T13:57:55;23.20;99.90
70986;DHT22;58645;43.068;25.610;2023-08-06T14:00:20;23.20;99.90
70986;DHT22;58645;43.068;25.610;2023-08-06T14:02:46;23.20;99.90
70986;DHT22;58645;43.068;25.610;2023-08-06T14:05:12;23.30;99.90
70986;DHT22;58645;43.068;25.610;2023-08-06T14:07:38;23.30;99.90
70986;DHT22;58645;43.068;25.610;2023-08-06T14:10:04;23.30;99.90
70986;DHT22;58645;43.068;25.610;2023-08-06T14:12:30;23.30;99.90
70986;DHT22;58645;43.068;25.610;2023-08-06T14:14:56;23.30;99.90
70986;DHT22;58645;43.068;25.610;2023-08-06T14:17:21;23.40;99.90
70986;DHT22;58645;43.068;25.610;2023-08-06T14:19:47;23.40;99.90
70986;DHT22;58645;43.068;25.610;2023-08-06T14:22:13;23.40;99.90
70986;DHT22;58645;43.068;25.610;2023-08-06T14:24:38;23.30;99.90
70986;DHT22;58645;43.068;25.610;2023-08-06T14:27:04;23.40;99.90
70986;DHT22;58645;43.068;25.610;2023-08-06T14:29:31;23.40;99.90
70986;DHT22;58645;43.068;25.610;2023-08-06T14:31:57;23.70;99.90
70986;DHT22;58645;43.068;25.610;2023-08-06T14:34:22;23.70;99.90
70986;DHT22;58645;43.068;25.610;2023-08-06T14:36:48;23.90;99.90
70986;DHT22;58645;43.068;25.610;2023-08-06T14:39:14;24.00;99.90
70986;DHT22;58645;43.068;25.610;2023-08-06T14:41:39;24.00;99.90
70986;DHT22;58645;43.068;25.610;2023-08-06T14:44:05;23.90;99.90
70986;DHT22;58645;43.068;25.610;2023-08-06T14:46:32;23.90;99.90
70986;DHT22;58645;43.068;25.610;2023-08-06T14:48:58;23.90;99.90
70986;DHT22;58645;43.068;25.610;2023-08-06T14:51:24;24.00;99.90
70986;DHT22;58645;43.068;25.610;2023-08-06T14:53:49;24.00;99.90
70986;DHT22;58645;43.068;25.610;2023-08-06T14:56:15;24.00;99.90
70986;DHT22;58645;43.068;25.610;2023-08-06T14:58:41;24.20;99.90
70986;DHT22;58645;43.068;25.610;2023-08-06T15:01:07;24.20;99.90
70986;DHT22;58645;43.068;25.610;2023-08-06T15:03:33;24.30;99.90
70986;DHT22;58645;43.068;25.610;2023-08-06T15:05:59;24.40;99.90
70986;DHT22;58645;43.068;25.610;2023-08-06T15:08:25;24.40;99.90
70986;DHT22;58645;43.068;25.610;2023-08-06T15:10:51;24.40;99.90
70986;DHT22;58645;43.068;25.610;2023-08-06T15:13:20;24.50;99.90
70986;DHT22;58645;43.068;25.610;2023-08-06T15:15:49;24.60;99.90
70986;DHT22;58645;43.068;25.610;2023-08-06T15:18:15;24.60;99.90
70986;DHT22;58645;43.068;25.610;2023-08-06T15:20:41;24.70;99.90
70986;DHT22;58645;43.068;25.610;2023-08-06T15:23:06;24.80;99.90
70986;DHT22;58645;43.068;25.610;2023-08-06T15:25:32;24.80;99.90
70986;DHT22;58645;43.068;25.610;2023-08-06T15:27:58;24.90;99.90